sensor_id;sensor_type;location;lat;lon;timestamp;P1;durP1;ratioP1;P2;durP2;ratioP2
51852;SDS011;37894;53.172;6.598;2023-06-05T00:02:18;9.50;;;5.63;;
51852;SDS011;37894;53.172;6.598;2023-06-05T00:04:44;10.38;;;5.90;;
51852;SDS011;37894;53.172;6.598;2023-06-05T00:07:10;11.30;;;6.15;;
51852;SDS011;37894;53.172;6.598;2023-06-05T00:09:35;11.93;;;5.97;;
51852;SDS011;37894;53.172;6.598;2023-06-05T00:12:01;11.27;;;6.63;;
51852;SDS011;37894;53.172;6.598;2023-06-05T00:14:27;9.20;;;5.82;;
51852;SDS011;37894;53.172;6.598;2023-06-05T00:16:52;9.52;;;6.82;;
51852;SDS011;37894;53.172;6.598;2023-06-05T00:19:18;12.07;;;6.55;;
51852;SDS011;37894;53.172;6.598;2023-06-05T00:21:44;11.82;;;6.28;;
51852;SDS011;37894;53.172;6.598;2023-06-05T00:24:10;10.38;;;6.32;;
51852;SDS011;37894;53.172;6.598;2023-06-05T00:26:36;9.82;;;5.90;;
51852;SDS011;37894;53.172;6.598;2023-06-05T00:29:01;12.00;;;6.90;;
51852;SDS011;37894;53.172;6.598;2023-06-05T00:31:27;8.57;;;5.70;;
51852;SDS011;37894;53.172;6.598;2023-06-05T00:33:53;9.27;;;5.75;;
51852;SDS011;37894;53.172;6.598;2023-06-05T00:36:18;10.85;;;6.03;;
51852;SDS011;37894;53.172;6.598;2023-06-05T00:38:47;8.63;;;5.50;;
51852;SDS011;37894;53.172;6.598;2023-06-05T00:41:15;10.25;;;6.30;;
51852;SDS011;37894;53.172;6.598;2023-06-05T00:43:41;8.52;;;5.40;;
51852;SDS011;37894;53.172;6.598;2023-06-05T00:46:06;10.07;;;5.35;;
51852;SDS011;37894;53.172;6.598;2023-06-05T00:48:33;9.32;;;5.57;;
51852;SDS011;37894;53.172;6.598;2023-06-05T00:50:59;10.85;;;5.53;;
51852;SDS011;37894;53.172;6.598;2023-06-05T00:53:26;11.73;;;5.50;;
51852;SDS011;37894;53.172;6.598;2023-06-05T00:55:52;7.10;;;5.00;;
51852;SDS011;37894;53.172;6.598;2023-06-05T00:58:19;9.75;;;5.72;;
51852;SDS011;37894;53.172;6.598;2023-06-05T01:00:45;10.75;;;5.38;;
51852;SDS011;37894;53.172;6.598;2023-06-05T01:03:14;11.73;;;6.35;;
51852;SDS011;37894;53.172;6.598;2023-06-05T01:05:42;12.48;;;5.55;;
51852;SDS011;37894;53.172;6.598;2023-06-05T01:08:08;9.52;;;5.03;;
51852;SDS011;37894;53.172;6.598;2023-06-05T01:10:37;8.55;;;5.25;;
51852;SDS011;37894;53.172;6.598;2023-06-05T01:13:04;9.40;;;5.38;;
51852;SDS011;37894;53.172;6.598;2023-06-05T01:15:40;9.23;;;5.57;;
51852;SDS011;37894;53.172;6.598;2023-06-05T01:18:06;8.73;;;5.40;;
51852;SDS011;37894;53.172;6.598;2023-06-05T01:20:38;11.05;;;5.70;;
51852;SDS011;37894;53.172;6.598;2023-06-05T01:23:05;10.93;;;5.70;;
51852;SDS011;37894;53.172;6.598;2023-06-05T01:25:32;8.32;;;5.35;;
51852;SDS011;37894;53.172;6.598;2023-06-05T01:31:08;13.13;;;5.78;;
51852;SDS011;37894;53.172;6.598;2023-06-05T01:33:51;7.57;;;5.38;;
51852;SDS011;37894;53.172;6.598;2023-06-05T01:36:22;9.97;;;6.00;;
51852;SDS011;37894;53.172;6.598;2023-06-05T01:38:49;12.38;;;6.15;;
51852;SDS011;37894;53.172;6.598;2023-06-05T01:41:16;9.48;;;5.35;;
51852;SDS011;37894;53.172;6.598;2023-06-05T01:43:44;12.70;;;6.43;;
51852;SDS011;37894;53.172;6.598;2023-06-05T01:46:13;10.90;;;6.20;;
51852;SDS011;37894;53.172;6.598;2023-06-05T01:48:42;9.00;;;6.53;;
51852;SDS011;37894;53.172;6.598;2023-06-05T01:51:08;12.70;;;6.25;;
51852;SDS011;37894;53.172;6.598;2023-06-05T01:53:34;12.35;;;6.05;;
51852;SDS011;37894;53.172;6.598;2023-06-05T01:55:59;12.23;;;6.53;;
51852;SDS011;37894;53.172;6.598;2023-06-05T01:58:26;9.57;;;6.53;;
51852;SDS011;37894;53.172;6.598;2023-06-05T02:00:52;11.85;;;6.63;;
51852;SDS011;37894;53.172;6.598;2023-06-05T02:03:19;12.57;;;7.47;;
51852;SDS011;37894;53.172;6.598;2023-06-05T02:05:45;10.38;;;6.30;;
51852;SDS011;37894;53.172;6.598;2023-06-05T02:08:11;12.77;;;7.18;;
51852;SDS011;37894;53.172;6.598;2023-06-05T02:10:38;13.82;;;6.95;;
51852;SDS011;37894;53.172;6.598;2023-06-05T02:13:09;12.43;;;6.72;;
51852;SDS011;37894;53.172;6.598;2023-06-05T02:15:35;10.23;;;6.28;;
51852;SDS011;37894;53.172;6.598;2023-06-05T02:18:01;12.05;;;7.25;;
51852;SDS011;37894;53.172;6.598;2023-06-05T02:20:29;12.43;;;6.25;;
51852;SDS011;37894;53.172;6.598;2023-06-05T02:22:56;13.48;;;7.18;;
51852;SDS011;37894;53.172;6.598;2023-06-05T02:25:22;10.48;;;6.82;;
51852;SDS011;37894;53.172;6.598;2023-06-05T02:27:52;11.40;;;7.00;;
51852;SDS011;37894;53.172;6.598;2023-06-05T02:30:18;10.07;;;7.30;;
51852;SDS011;37894;53.172;6.598;2023-06-05T02:32:45;12.50;;;7.38;;
51852;SDS011;37894;53.172;6.598;2023-06-05T02:35:11;10.13;;;6.43;;
51852;SDS011;37894;53.172;6.598;2023-06-05T02:37:37;11.90;;;6.82;;
51852;SDS011;37894;53.172;6.598;2023-06-05T02:40:08;11.60;;;7.30;;
51852;SDS011;37894;53.172;6.598;2023-06-05T02:42:38;19.30;;;6.95;;
51852;SDS011;37894;53.172;6.598;2023-06-05T02:45:04;12.43;;;7.50;;
51852;SDS011;37894;53.172;6.598;2023-06-05T02:47:31;15.70;;;7.13;;
51852;SDS011;37894;53.172;6.598;2023-06-05T02:49:57;10.98;;;6.68;;
51852;SDS011;37894;53.172;6.598;2023-06-05T02:52:23;11.50;;;7.05;;
51852;SDS011;37894;53.172;6.598;2023-06-05T02:54:50;11.13;;;6.72;;
51852;SDS011;37894;53.172;6.598;2023-06-05T02:57:16;13.05;;;7.47;;
51852;SDS011;37894;53.172;6.598;2023-06-05T02:59:42;11.15;;;7.05;;
51852;SDS011;37894;53.172;6.598;2023-06-05T03:02:09;11.30;;;6.65;;
51852;SDS011;37894;53.172;6.598;2023-06-05T03:04:36;10.88;;;6.40;;
51852;SDS011;37894;53.172;6.598;2023-06-05T03:07:05;11.38;;;6.38;;
51852;SDS011;37894;53.172;6.598;2023-06-05T03:09:33;11.50;;;6.72;;
51852;SDS011;37894;53.172;6.598;2023-06-05T03:11:58;14.20;;;6.50;;
51852;SDS011;37894;53.172;6.598;2023-06-05T03:14:24;10.07;;;6.30;;
51852;SDS011;37894;53.172;6.598;2023-06-05T03:16:51;11.10;;;6.72;;
51852;SDS011;37894;53.172;6.598;2023-06-05T03:19:18;10.15;;;6.90;;
51852;SDS011;37894;53.172;6.598;2023-06-05T03:21:44;11.38;;;6.68;;
51852;SDS011;37894;53.172;6.598;2023-06-05T03:24:11;11.52;;;6.63;;
51852;SDS011;37894;53.172;6.598;2023-06-05T03:26:39;10.90;;;5.78;;
51852;SDS011;37894;53.172;6.598;2023-06-05T03:29:09;10.15;;;5.88;;
51852;SDS011;37894;53.172;6.598;2023-06-05T03:31:35;11.27;;;5.68;;
51852;SDS011;37894;53.172;6.598;2023-06-05T03:34:01;11.52;;;6.43;;
51852;SDS011;37894;53.172;6.598;2023-06-05T03:36:28;8.82;;;6.07;;
51852;SDS011;37894;53.172;6.598;2023-06-05T03:38:55;10.43;;;6.10;;
51852;SDS011;37894;53.172;6.598;2023-06-05T03:41:24;8.88;;;5.70;;
51852;SDS011;37894;53.172;6.598;2023-06-05T03:43:51;14.07;;;7.40;;
51852;SDS011;37894;53.172;6.598;2023-06-05T03:46:17;14.00;;;5.82;;
51852;SDS011;37894;53.172;6.598;2023-06-05T03:48:47;9.85;;;5.70;;
51852;SDS011;37894;53.172;6.598;2023-06-05T03:51:14;8.82;;;5.53;;
51852;SDS011;37894;53.172;6.598;2023-06-05T03:53:43;10.57;;;6.07;;
51852;SDS011;37894;53.172;6.598;2023-06-05T03:56:09;10.20;;;5.20;;
51852;SDS011;37894;53.172;6.598;2023-06-05T03:58:36;12.02;;;6.78;;
51852;SDS011;37894;53.172;6.598;2023-06-05T04:01:03;7.90;;;4.97;;
51852;SDS011;37894;53.172;6.598;2023-06-05T04:03:29;10.43;;;5.65;;
51852;SDS011;37894;53.172;6.598;2023-06-05T04:05:55;8.55;;;5.20;;
51852;SDS011;37894;53.172;6.598;2023-06-05T04:08:21;8.63;;;5.35;;
51852;SDS011;37894;53.172;6.598;2023-06-05T04:10:46;10.15;;;5.75;;
51852;SDS011;37894;53.172;6.598;2023-06-05T04:13:12;8.73;;;5.78;;
51852;SDS011;37894;53.172;6.598;2023-06-05T04:15:38;9.05;;;5.55;;
51852;SDS011;37894;53.172;6.598;2023-06-05T04:18:03;11.07;;;5.38;;
51852;SDS011;37894;53.172;6.598;2023-06-05T04:20:29;9.55;;;5.57;;
51852;SDS011;37894;53.172;6.598;2023-06-05T04:22:55;9.48;;;5.75;;
51852;SDS011;37894;53.172;6.598;2023-06-05T04:25:20;9.95;;;5.28;;
51852;SDS011;37894;53.172;6.598;2023-06-05T04:27:47;8.70;;;4.55;;
51852;SDS011;37894;53.172;6.598;2023-06-05T04:30:15;7.40;;;4.47;;
51852;SDS011;37894;53.172;6.598;2023-06-05T04:32:41;7.95;;;4.65;;
51852;SDS011;37894;53.172;6.598;2023-06-05T04:35:10;8.23;;;4.50;;
51852;SDS011;37894;53.172;6.598;2023-06-05T04:37:36;8.18;;;4.65;;
51852;SDS011;37894;53.172;6.598;2023-06-05T04:40:03;9.05;;;4.88;;
51852;SDS011;37894;53.172;6.598;2023-06-05T04:42:35;8.27;;;4.20;;
51852;SDS011;37894;53.172;6.598;2023-06-05T04:45:02;8.55;;;4.65;;
51852;SDS011;37894;53.172;6.598;2023-06-05T04:47:30;9.52;;;5.22;;
51852;SDS011;37894;53.172;6.598;2023-06-05T04:50:00;7.45;;;4.78;;
51852;SDS011;37894;53.172;6.598;2023-06-05T04:52:29;8.95;;;4.03;;
51852;SDS011;37894;53.172;6.598;2023-06-05T04:54:56;9.10;;;4.53;;
51852;SDS011;37894;53.172;6.598;2023-06-05T04:57:22;9.52;;;5.22;;
51852;SDS011;37894;53.172;6.598;2023-06-05T04:59:51;8.10;;;4.38;;
51852;SDS011;37894;53.172;6.598;2023-06-05T05:02:17;8.10;;;4.57;;
51852;SDS011;37894;53.172;6.598;2023-06-05T05:04:43;9.10;;;5.00;;
51852;SDS011;37894;53.172;6.598;2023-06-05T05:07:09;8.63;;;4.93;;
51852;SDS011;37894;53.172;6.598;2023-06-05T05:09:40;7.90;;;5.05;;
51852;SDS011;37894;53.172;6.598;2023-06-05T05:12:06;7.03;;;4.55;;
51852;SDS011;37894;53.172;6.598;2023-06-05T05:14:32;6.93;;;4.63;;
51852;SDS011;37894;53.172;6.598;2023-06-05T05:16:58;7.07;;;3.70;;
51852;SDS011;37894;53.172;6.598;2023-06-05T05:19:23;6.65;;;3.80;;
51852;SDS011;37894;53.172;6.598;2023-06-05T05:21:49;6.93;;;3.53;;
51852;SDS011;37894;53.172;6.598;2023-06-05T05:24:15;5.43;;;2.90;;
51852;SDS011;37894;53.172;6.598;2023-06-05T05:26:41;5.22;;;3.13;;
51852;SDS011;37894;53.172;6.598;2023-06-05T05:29:07;5.35;;;2.88;;
51852;SDS011;37894;53.172;6.598;2023-06-05T05:31:33;7.50;;;2.92;;
51852;SDS011;37894;53.172;6.598;2023-06-05T05:33:59;6.72;;;3.10;;
51852;SDS011;37894;53.172;6.598;2023-06-05T05:36:25;4.22;;;2.50;;
51852;SDS011;37894;53.172;6.598;2023-06-05T05:38:55;5.32;;;3.20;;
51852;SDS011;37894;53.172;6.598;2023-06-05T05:41:20;6.10;;;2.97;;
51852;SDS011;37894;53.172;6.598;2023-06-05T05:43:47;4.97;;;2.80;;
51852;SDS011;37894;53.172;6.598;2023-06-05T05:46:13;5.03;;;2.50;;
51852;SDS011;37894;53.172;6.598;2023-06-05T05:48:39;5.93;;;2.78;;
51852;SDS011;37894;53.172;6.598;2023-06-05T05:51:05;6.65;;;2.80;;
51852;SDS011;37894;53.172;6.598;2023-06-05T05:53:32;6.00;;;2.70;;
51852;SDS011;37894;53.172;6.598;2023-06-05T05:55:57;14.32;;;3.47;;
51852;SDS011;37894;53.172;6.598;2023-06-05T05:58:23;5.25;;;3.15;;
51852;SDS011;37894;53.172;6.598;2023-06-05T06:00:49;5.47;;;2.67;;
51852;SDS011;37894;53.172;6.598;2023-06-05T06:03:18;5.10;;;2.72;;
51852;SDS011;37894;53.172;6.598;2023-06-05T06:05:44;5.88;;;2.63;;
51852;SDS011;37894;53.172;6.598;2023-06-05T06:08:13;5.88;;;3.00;;
51852;SDS011;37894;53.172;6.598;2023-06-05T06:10:40;5.18;;;2.90;;
51852;SDS011;37894;53.172;6.598;2023-06-05T06:13:05;4.40;;;2.78;;
51852;SDS011;37894;53.172;6.598;2023-06-05T06:15:32;4.65;;;2.35;;
51852;SDS011;37894;53.172;6.598;2023-06-05T06:17:58;4.95;;;2.97;;
51852;SDS011;37894;53.172;6.598;2023-06-05T06:20:27;5.35;;;3.13;;
51852;SDS011;37894;53.172;6.598;2023-06-05T06:22:54;4.93;;;2.88;;
51852;SDS011;37894;53.172;6.598;2023-06-05T06:25:20;7.43;;;3.28;;
51852;SDS011;37894;53.172;6.598;2023-06-05T06:27:46;6.30;;;2.92;;
51852;SDS011;37894;53.172;6.598;2023-06-05T06:30:13;5.45;;;2.50;;
51852;SDS011;37894;53.172;6.598;2023-06-05T06:32:40;4.35;;;2.83;;
51852;SDS011;37894;53.172;6.598;2023-06-05T06:35:06;5.97;;;2.30;;
51852;SDS011;37894;53.172;6.598;2023-06-05T06:37:32;5.50;;;2.97;;
51852;SDS011;37894;53.172;6.598;2023-06-05T06:39:58;4.90;;;2.67;;
51852;SDS011;37894;53.172;6.598;2023-06-05T06:42:24;4.75;;;3.08;;
51852;SDS011;37894;53.172;6.598;2023-06-05T06:44:51;5.03;;;2.40;;
51852;SDS011;37894;53.172;6.598;2023-06-05T06:47:21;4.93;;;3.13;;
51852;SDS011;37894;53.172;6.598;2023-06-05T06:49:47;3.85;;;2.53;;
51852;SDS011;37894;53.172;6.598;2023-06-05T06:52:13;4.43;;;2.40;;
51852;SDS011;37894;53.172;6.598;2023-06-05T06:54:38;3.63;;;2.30;;
51852;SDS011;37894;53.172;6.598;2023-06-05T06:57:04;4.28;;;2.60;;
51852;SDS011;37894;53.172;6.598;2023-06-05T06:59:30;6.55;;;2.47;;
51852;SDS011;37894;53.172;6.598;2023-06-05T07:04:54;5.13;;;2.55;;
51852;SDS011;37894;53.172;6.598;2023-06-05T07:07:20;5.05;;;2.50;;
51852;SDS011;37894;53.172;6.598;2023-06-05T07:09:48;5.78;;;2.53;;
51852;SDS011;37894;53.172;6.598;2023-06-05T07:12:16;4.07;;;2.40;;
51852;SDS011;37894;53.172;6.598;2023-06-05T07:14:44;4.18;;;2.47;;
51852;SDS011;37894;53.172;6.598;2023-06-05T07:17:10;5.45;;;2.35;;
51852;SDS011;37894;53.172;6.598;2023-06-05T07:19:36;3.88;;;2.15;;
51852;SDS011;37894;53.172;6.598;2023-06-05T07:22:03;4.82;;;2.40;;
51852;SDS011;37894;53.172;6.598;2023-06-05T07:24:29;4.75;;;2.30;;
51852;SDS011;37894;53.172;6.598;2023-06-05T07:26:56;4.60;;;2.33;;
51852;SDS011;37894;53.172;6.598;2023-06-05T07:29:24;5.28;;;2.13;;
51852;SDS011;37894;53.172;6.598;2023-06-05T07:31:50;4.22;;;2.00;;
51852;SDS011;37894;53.172;6.598;2023-06-05T07:34:19;5.60;;;2.65;;
51852;SDS011;37894;53.172;6.598;2023-06-05T07:36:47;3.45;;;2.20;;
51852;SDS011;37894;53.172;6.598;2023-06-05T07:39:17;5.22;;;2.20;;
51852;SDS011;37894;53.172;6.598;2023-06-05T07:41:47;3.47;;;1.90;;
51852;SDS011;37894;53.172;6.598;2023-06-05T07:44:14;3.95;;;1.98;;
51852;SDS011;37894;53.172;6.598;2023-06-05T07:46:45;4.30;;;2.13;;
51852;SDS011;37894;53.172;6.598;2023-06-05T07:49:12;4.47;;;2.15;;
51852;SDS011;37894;53.172;6.598;2023-06-05T07:51:38;5.85;;;2.13;;
51852;SDS011;37894;53.172;6.598;2023-06-05T07:54:05;3.67;;;2.20;;
51852;SDS011;37894;53.172;6.598;2023-06-05T07:56:32;5.55;;;2.35;;
51852;SDS011;37894;53.172;6.598;2023-06-05T07:58:59;6.78;;;2.72;;
51852;SDS011;37894;53.172;6.598;2023-06-05T08:01:29;3.72;;;2.20;;
51852;SDS011;37894;53.172;6.598;2023-06-05T08:03:55;5.65;;;2.92;;
51852;SDS011;37894;53.172;6.598;2023-06-05T08:06:22;4.43;;;2.17;;
51852;SDS011;37894;53.172;6.598;2023-06-05T08:08:49;5.45;;;2.45;;
51852;SDS011;37894;53.172;6.598;2023-06-05T08:11:15;3.92;;;2.00;;
51852;SDS011;37894;53.172;6.598;2023-06-05T08:13:41;4.07;;;1.95;;
51852;SDS011;37894;53.172;6.598;2023-06-05T08:16:07;3.50;;;2.25;;
51852;SDS011;37894;53.172;6.598;2023-06-05T08:18:32;4.47;;;2.25;;
51852;SDS011;37894;53.172;6.598;2023-06-05T08:20:58;3.88;;;2.10;;
51852;SDS011;37894;53.172;6.598;2023-06-05T08:23:24;4.32;;;2.08;;
51852;SDS011;37894;53.172;6.598;2023-06-05T08:25:49;4.40;;;2.65;;
51852;SDS011;37894;53.172;6.598;2023-06-05T08:28:15;4.38;;;2.40;;
51852;SDS011;37894;53.172;6.598;2023-06-05T08:30:41;4.53;;;2.30;;
51852;SDS011;37894;53.172;6.598;2023-06-05T08:33:09;4.22;;;2.40;;
51852;SDS011;37894;53.172;6.598;2023-06-05T08:35:39;8.23;;;2.63;;
51852;SDS011;37894;53.172;6.598;2023-06-05T08:38:07;7.18;;;2.75;;
51852;SDS011;37894;53.172;6.598;2023-06-05T08:40:33;5.22;;;2.97;;
51852;SDS011;37894;53.172;6.598;2023-06-05T08:42:59;5.63;;;3.22;;
51852;SDS011;37894;53.172;6.598;2023-06-05T08:45:26;4.97;;;2.80;;
51852;SDS011;37894;53.172;6.598;2023-06-05T08:47:52;5.03;;;2.72;;
51852;SDS011;37894;53.172;6.598;2023-06-05T08:50:19;5.13;;;2.80;;
51852;SDS011;37894;53.172;6.598;2023-06-05T08:52:45;5.38;;;2.80;;
51852;SDS011;37894;53.172;6.598;2023-06-05T08:55:13;5.85;;;2.75;;
51852;SDS011;37894;53.172;6.598;2023-06-05T08:57:40;5.55;;;3.20;;
51852;SDS011;37894;53.172;6.598;2023-06-05T09:00:07;5.05;;;2.85;;
51852;SDS011;37894;53.172;6.598;2023-06-05T09:02:36;5.82;;;2.85;;
51852;SDS011;37894;53.172;6.598;2023-06-05T09:05:04;4.57;;;2.92;;
51852;SDS011;37894;53.172;6.598;2023-06-05T09:07:30;5.72;;;2.08;;
51852;SDS011;37894;53.172;6.598;2023-06-05T09:09:57;6.38;;;2.60;;
51852;SDS011;37894;53.172;6.598;2023-06-05T09:12:23;6.07;;;3.20;;
51852;SDS011;37894;53.172;6.598;2023-06-05T09:14:51;5.05;;;3.10;;
51852;SDS011;37894;53.172;6.598;2023-06-05T09:17:17;3.88;;;2.50;;
51852;SDS011;37894;53.172;6.598;2023-06-05T09:19:43;5.40;;;2.83;;
51852;SDS011;37894;53.172;6.598;2023-06-05T09:22:11;4.95;;;2.70;;
51852;SDS011;37894;53.172;6.598;2023-06-05T09:24:38;5.47;;;3.03;;
51852;SDS011;37894;53.172;6.598;2023-06-05T09:27:09;5.63;;;3.10;;
51852;SDS011;37894;53.172;6.598;2023-06-05T09:29:36;5.22;;;3.20;;
51852;SDS011;37894;53.172;6.598;2023-06-05T09:34:37;5.40;;;2.50;;
51852;SDS011;37894;53.172;6.598;2023-06-05T09:37:05;5.65;;;2.50;;
51852;SDS011;37894;53.172;6.598;2023-06-05T09:39:33;5.35;;;3.03;;
51852;SDS011;37894;53.172;6.598;2023-06-05T09:42:03;5.10;;;2.70;;
51852;SDS011;37894;53.172;6.598;2023-06-05T09:44:30;6.38;;;3.38;;
51852;SDS011;37894;53.172;6.598;2023-06-05T09:46:58;5.43;;;2.80;;
51852;SDS011;37894;53.172;6.598;2023-06-05T09:52:10;4.45;;;2.83;;
51852;SDS011;37894;53.172;6.598;2023-06-05T09:54:37;4.10;;;2.50;;
51852;SDS011;37894;53.172;6.598;2023-06-05T09:57:10;4.75;;;2.75;;
51852;SDS011;37894;53.172;6.598;2023-06-05T09:59:53;5.60;;;2.33;;
51852;SDS011;37894;53.172;6.598;2023-06-05T10:02:20;5.32;;;2.85;;
51852;SDS011;37894;53.172;6.598;2023-06-05T10:04:49;4.85;;;2.47;;
51852;SDS011;37894;53.172;6.598;2023-06-05T10:07:22;3.75;;;2.38;;
51852;SDS011;37894;53.172;6.598;2023-06-05T10:09:49;5.93;;;2.65;;
51852;SDS011;37894;53.172;6.598;2023-06-05T10:12:15;4.43;;;2.80;;
51852;SDS011;37894;53.172;6.598;2023-06-05T10:14:42;3.65;;;2.30;;
51852;SDS011;37894;53.172;6.598;2023-06-05T10:17:11;4.65;;;2.67;;
51852;SDS011;37894;53.172;6.598;2023-06-05T10:19:41;4.60;;;2.20;;
51852;SDS011;37894;53.172;6.598;2023-06-05T10:22:11;4.55;;;2.28;;
51852;SDS011;37894;53.172;6.598;2023-06-05T10:24:39;4.65;;;2.72;;
51852;SDS011;37894;53.172;6.598;2023-06-05T10:32:07;4.72;;;1.95;;
51852;SDS011;37894;53.172;6.598;2023-06-05T10:40:34;4.70;;;2.58;;
51852;SDS011;37894;53.172;6.598;2023-06-05T10:45:48;2.75;;;1.70;;
51852;SDS011;37894;53.172;6.598;2023-06-05T10:48:14;3.05;;;1.80;;
51852;SDS011;37894;53.172;6.598;2023-06-05T10:50:41;3.20;;;1.90;;
51852;SDS011;37894;53.172;6.598;2023-06-05T10:53:07;3.10;;;1.77;;
51852;SDS011;37894;53.172;6.598;2023-06-05T10:55:58;4.50;;;1.83;;
51852;SDS011;37894;53.172;6.598;2023-06-05T10:58:24;3.63;;;2.05;;
51852;SDS011;37894;53.172;6.598;2023-06-05T11:03:53;3.33;;;1.85;;
51852;SDS011;37894;53.172;6.598;2023-06-05T11:06:24;4.57;;;2.00;;
51852;SDS011;37894;53.172;6.598;2023-06-05T11:09:05;3.83;;;1.80;;
51852;SDS011;37894;53.172;6.598;2023-06-05T11:11:54;2.83;;;1.80;;
51852;SDS011;37894;53.172;6.598;2023-06-05T11:14:43;3.72;;;1.90;;
51852;SDS011;37894;53.172;6.598;2023-06-05T11:19:54;4.07;;;1.60;;
51852;SDS011;37894;53.172;6.598;2023-06-05T11:22:20;2.85;;;1.65;;
51852;SDS011;37894;53.172;6.598;2023-06-05T11:24:46;3.58;;;1.95;;
51852;SDS011;37894;53.172;6.598;2023-06-05T11:30:28;3.78;;;1.70;;
51852;SDS011;37894;53.172;6.598;2023-06-05T11:33:10;2.72;;;1.55;;
51852;SDS011;37894;53.172;6.598;2023-06-05T11:35:41;4.72;;;2.10;;
51852;SDS011;37894;53.172;6.598;2023-06-05T11:38:08;5.00;;;2.00;;
51852;SDS011;37894;53.172;6.598;2023-06-05T11:40:36;5.63;;;2.08;;
51852;SDS011;37894;53.172;6.598;2023-06-05T11:43:06;2.72;;;1.60;;
51852;SDS011;37894;53.172;6.598;2023-06-05T11:45:34;5.13;;;1.90;;
51852;SDS011;37894;53.172;6.598;2023-06-05T11:48:08;2.85;;;1.80;;
51852;SDS011;37894;53.172;6.598;2023-06-05T11:53:22;3.58;;;1.60;;
51852;SDS011;37894;53.172;6.598;2023-06-05T11:55:49;3.03;;;1.50;;
51852;SDS011;37894;53.172;6.598;2023-06-05T11:58:26;3.88;;;1.65;;
51852;SDS011;37894;53.172;6.598;2023-06-05T12:01:06;4.20;;;1.58;;
51852;SDS011;37894;53.172;6.598;2023-06-05T12:04:06;3.10;;;2.08;;
51852;SDS011;37894;53.172;6.598;2023-06-05T12:06:33;3.55;;;1.80;;
51852;SDS011;37894;53.172;6.598;2023-06-05T12:09:07;4.05;;;1.98;;
51852;SDS011;37894;53.172;6.598;2023-06-05T12:11:34;2.85;;;1.60;;
51852;SDS011;37894;53.172;6.598;2023-06-05T12:14:00;5.00;;;2.22;;
51852;SDS011;37894;53.172;6.598;2023-06-05T12:16:30;4.57;;;2.13;;
51852;SDS011;37894;53.172;6.598;2023-06-05T12:18:57;4.72;;;2.03;;
51852;SDS011;37894;53.172;6.598;2023-06-05T12:21:23;5.47;;;1.70;;
51852;SDS011;37894;53.172;6.598;2023-06-05T12:23:50;3.92;;;1.92;;
51852;SDS011;37894;53.172;6.598;2023-06-05T12:26:17;2.97;;;1.70;;
51852;SDS011;37894;53.172;6.598;2023-06-05T12:28:44;2.80;;;1.42;;
51852;SDS011;37894;53.172;6.598;2023-06-05T12:31:31;3.75;;;1.60;;
51852;SDS011;37894;53.172;6.598;2023-06-05T12:34:01;5.50;;;1.88;;
51852;SDS011;37894;53.172;6.598;2023-06-05T12:36:29;4.63;;;1.98;;
51852;SDS011;37894;53.172;6.598;2023-06-05T12:39:01;3.53;;;1.95;;
51852;SDS011;37894;53.172;6.598;2023-06-05T12:41:29;3.15;;;1.58;;
51852;SDS011;37894;53.172;6.598;2023-06-05T12:43:59;4.13;;;2.38;;
51852;SDS011;37894;53.172;6.598;2023-06-05T12:46:32;4.25;;;1.67;;
51852;SDS011;37894;53.172;6.598;2023-06-05T12:48:59;4.72;;;2.00;;
51852;SDS011;37894;53.172;6.598;2023-06-05T12:51:28;6.82;;;1.73;;
51852;SDS011;37894;53.172;6.598;2023-06-05T12:53:55;4.50;;;1.80;;
51852;SDS011;37894;53.172;6.598;2023-06-05T12:56:22;4.10;;;2.20;;
51852;SDS011;37894;53.172;6.598;2023-06-05T12:58:53;3.58;;;1.90;;
51852;SDS011;37894;53.172;6.598;2023-06-05T13:01:20;3.53;;;1.48;;
51852;SDS011;37894;53.172;6.598;2023-06-05T13:03:47;3.45;;;1.50;;
51852;SDS011;37894;53.172;6.598;2023-06-05T13:06:13;3.75;;;1.90;;
51852;SDS011;37894;53.172;6.598;2023-06-05T13:08:39;3.85;;;1.95;;
51852;SDS011;37894;53.172;6.598;2023-06-05T13:11:05;4.35;;;2.50;;
51852;SDS011;37894;53.172;6.598;2023-06-05T13:13:30;3.53;;;1.85;;
51852;SDS011;37894;53.172;6.598;2023-06-05T13:15:58;3.80;;;2.40;;
51852;SDS011;37894;53.172;6.598;2023-06-05T13:18:25;3.78;;;1.70;;
51852;SDS011;37894;53.172;6.598;2023-06-05T13:20:52;3.60;;;2.05;;
51852;SDS011;37894;53.172;6.598;2023-06-05T13:23:17;5.03;;;2.17;;
51852;SDS011;37894;53.172;6.598;2023-06-05T13:25:43;3.80;;;2.42;;
51852;SDS011;37894;53.172;6.598;2023-06-05T13:28:09;3.70;;;2.10;;
51852;SDS011;37894;53.172;6.598;2023-06-05T13:30:35;4.13;;;2.20;;
51852;SDS011;37894;53.172;6.598;2023-06-05T13:33:00;4.97;;;2.33;;
51852;SDS011;37894;53.172;6.598;2023-06-05T13:35:26;4.05;;;2.47;;
51852;SDS011;37894;53.172;6.598;2023-06-05T13:37:52;4.72;;;2.90;;
51852;SDS011;37894;53.172;6.598;2023-06-05T13:40:17;3.88;;;2.00;;
51852;SDS011;37894;53.172;6.598;2023-06-05T13:42:43;6.20;;;3.05;;
51852;SDS011;37894;53.172;6.598;2023-06-05T13:45:09;3.85;;;2.40;;
51852;SDS011;37894;53.172;6.598;2023-06-05T13:47:35;4.32;;;3.00;;
51852;SDS011;37894;53.172;6.598;2023-06-05T13:50:01;4.57;;;2.90;;
51852;SDS011;37894;53.172;6.598;2023-06-05T13:52:28;3.80;;;2.03;;
51852;SDS011;37894;53.172;6.598;2023-06-05T13:54:54;5.35;;;3.00;;
51852;SDS011;37894;53.172;6.598;2023-06-05T13:57:20;5.22;;;3.13;;
51852;SDS011;37894;53.172;6.598;2023-06-05T13:59:45;4.05;;;2.50;;
51852;SDS011;37894;53.172;6.598;2023-06-05T14:02:11;3.90;;;2.47;;
51852;SDS011;37894;53.172;6.598;2023-06-05T14:04:37;4.95;;;2.67;;
51852;SDS011;37894;53.172;6.598;2023-06-05T14:07:03;4.97;;;2.30;;
51852;SDS011;37894;53.172;6.598;2023-06-05T14:09:29;3.80;;;2.25;;
51852;SDS011;37894;53.172;6.598;2023-06-05T14:11:56;6.50;;;3.05;;
51852;SDS011;37894;53.172;6.598;2023-06-05T14:14:25;4.53;;;2.20;;
51852;SDS011;37894;53.172;6.598;2023-06-05T14:16:51;4.43;;;2.80;;
51852;SDS011;37894;53.172;6.598;2023-06-05T14:19:17;4.55;;;2.60;;
51852;SDS011;37894;53.172;6.598;2023-06-05T14:21:43;7.40;;;2.80;;
51852;SDS011;37894;53.172;6.598;2023-06-05T14:24:09;4.63;;;2.65;;
51852;SDS011;37894;53.172;6.598;2023-06-05T14:26:35;4.95;;;2.50;;
51852;SDS011;37894;53.172;6.598;2023-06-05T14:29:01;4.57;;;2.95;;
51852;SDS011;37894;53.172;6.598;2023-06-05T14:31:28;3.88;;;2.53;;
51852;SDS011;37894;53.172;6.598;2023-06-05T14:33:53;4.53;;;2.88;;
51852;SDS011;37894;53.172;6.598;2023-06-05T14:36:19;4.53;;;2.50;;
51852;SDS011;37894;53.172;6.598;2023-06-05T14:38:45;6.22;;;2.70;;
51852;SDS011;37894;53.172;6.598;2023-06-05T14:41:11;4.60;;;2.80;;
51852;SDS011;37894;53.172;6.598;2023-06-05T14:43:37;5.82;;;2.72;;
51852;SDS011;37894;53.172;6.598;2023-06-05T14:46:03;5.88;;;3.00;;
51852;SDS011;37894;53.172;6.598;2023-06-05T14:48:29;7.15;;;3.20;;
51852;SDS011;37894;53.172;6.598;2023-06-05T14:50:56;8.20;;;3.10;;
51852;SDS011;37894;53.172;6.598;2023-06-05T14:53:21;5.63;;;2.78;;
51852;SDS011;37894;53.172;6.598;2023-06-05T14:55:47;5.22;;;2.92;;
51852;SDS011;37894;53.172;6.598;2023-06-05T14:58:13;4.88;;;3.03;;
51852;SDS011;37894;53.172;6.598;2023-06-05T15:00:40;5.93;;;2.88;;
51852;SDS011;37894;53.172;6.598;2023-06-05T15:03:06;4.63;;;2.65;;
51852;SDS011;37894;53.172;6.598;2023-06-05T15:05:33;7.35;;;3.22;;
51852;SDS011;37894;53.172;6.598;2023-06-05T15:07:59;5.20;;;3.20;;
51852;SDS011;37894;53.172;6.598;2023-06-05T15:10:25;6.40;;;2.90;;
51852;SDS011;37894;53.172;6.598;2023-06-05T15:12:52;5.93;;;2.97;;
51852;SDS011;37894;53.172;6.598;2023-06-05T15:15:22;5.65;;;3.58;;
51852;SDS011;37894;53.172;6.598;2023-06-05T15:17:51;7.55;;;3.50;;
51852;SDS011;37894;53.172;6.598;2023-06-05T15:20:19;6.18;;;3.60;;
51852;SDS011;37894;53.172;6.598;2023-06-05T15:22:46;7.18;;;3.03;;
51852;SDS011;37894;53.172;6.598;2023-06-05T15:25:12;7.03;;;3.15;;